sensor_id;sensor_type;location;lat;lon;timestamp;pressure;altitude;pressure_sealevel;temperature;humidity
12868;BME280;33517;49.866;8.320;2023-09-08T00:01:01;100661.69;;;16.28;83.76
12868;BME280;33517;49.866;8.320;2023-09-08T00:03:53;100662.28;;;16.24;83.98
12868;BME280;33517;49.866;8.320;2023-09-08T00:06:46;100659.81;;;16.22;83.71
12868;BME280;33517;49.866;8.320;2023-09-08T00:09:38;100656.53;;;16.20;83.88
12868;BME280;33517;49.866;8.320;2023-09-08T00:12:30;100664.69;;;16.19;84.31
12868;BME280;33517;49.866;8.320;2023-09-08T00:15:22;100652.63;;;16.16;84.65
12868;BME280;33517;49.866;8.320;2023-09-08T00:18:14;100656.47;;;16.14;84.41
12868;BME280;33517;49.866;8.320;2023-09-08T00:21:06;100650.75;;;16.10;84.22
12868;BME280;33517;49.866;8.320;2023-09-08T00:23:59;100660.13;;;16.06;84.53
12868;BME280;33517;49.866;8.320;2023-09-08T00:26:51;100656.19;;;16.02;84.48
12868;BME280;33517;49.866;8.320;2023-09-08T00:29:43;100656.81;;;15.98;84.67
12868;BME280;33517;49.866;8.320;2023-09-08T00:32:35;100655.34;;;15.95;84.69
12868;BME280;33517;49.866;8.320;2023-09-08T00:35:27;100660.84;;;15.94;85.05
12868;BME280;33517;49.866;8.320;2023-09-08T00:38:19;100651.44;;;15.91;85.69
12868;BME280;33517;49.866;8.320;2023-09-08T00:41:12;100650.81;;;15.89;85.22
12868;BME280;33517;49.866;8.320;2023-09-08T00:44:05;100651.22;;;15.86;85.50
12868;BME280;33517;49.866;8.320;2023-09-08T00:46:59;100653.44;;;15.83;85.64
12868;BME280;33517;49.866;8.320;2023-09-08T00:49:51;100650.94;;;15.81;86.07
12868;BME280;33517;49.866;8.320;2023-09-08T00:52:43;100642.00;;;15.82;85.85
12868;BME280;33517;49.866;8.320;2023-09-08T00:55:35;100642.97;;;15.81;86.24
12868;BME280;33517;49.866;8.320;2023-09-08T00:58:29;100643.38;;;15.78;86.38
12868;BME280;33517;49.866;8.320;2023-09-08T01:01:21;100644.59;;;15.76;86.18
12868;BME280;33517;49.866;8.320;2023-09-08T01:04:12;100646.81;;;15.72;86.31
12868;BME280;33517;49.866;8.320;2023-09-08T01:07:04;100646.19;;;15.70;86.57
12868;BME280;33517;49.866;8.320;2023-09-08T01:09:57;100644.56;;;15.69;86.53
12868;BME280;33517;49.866;8.320;2023-09-08T01:12:54;100653.50;;;15.68;86.80
12868;BME280;33517;49.866;8.320;2023-09-08T01:15:49;100649.38;;;15.65;86.91
12868;BME280;33517;49.866;8.320;2023-09-08T01:18:41;100654.91;;;15.64;87.05
12868;BME280;33517;49.866;8.320;2023-09-08T01:21:51;100652.84;;;15.59;86.77
12868;BME280;33517;49.866;8.320;2023-09-08T01:25:08;100654.84;;;15.57;87.43
12868;BME280;33517;49.866;8.320;2023-09-08T01:28:02;100656.06;;;15.55;87.38
12868;BME280;33517;49.866;8.320;2023-09-08T01:30:55;100659.91;;;15.52;87.48
12868;BME280;33517;49.866;8.320;2023-09-08T01:33:48;100659.09;;;15.52;87.53
12868;BME280;33517;49.866;8.320;2023-09-08T01:36:40;100658.28;;;15.51;87.68
12868;BME280;33517;49.866;8.320;2023-09-08T01:39:32;100660.50;;;15.48;87.79
12868;BME280;33517;49.866;8.320;2023-09-08T01:42:25;100655.34;;;15.46;87.71
12868;BME280;33517;49.866;8.320;2023-09-08T01:45:17;100666.16;;;15.45;87.79
12868;BME280;33517;49.866;8.320;2023-09-08T01:48:09;100657.56;;;15.43;87.65
12868;BME280;33517;49.866;8.320;2023-09-08T01:51:01;100657.09;;;15.39;88.07
12868;BME280;33517;49.866;8.320;2023-09-08T01:53:52;100648.50;;;15.37;88.06
12868;BME280;33517;49.866;8.320;2023-09-08T01:56:44;100658.50;;;15.35;88.09
12868;BME280;33517;49.866;8.320;2023-09-08T01:59:38;100657.06;;;15.33;88.03
12868;BME280;33517;49.866;8.320;2023-09-08T02:02:29;100648.47;;;15.31;87.98
12868;BME280;33517;49.866;8.320;2023-09-08T02:05:21;100653.31;;;15.27;87.98
12868;BME280;33517;49.866;8.320;2023-09-08T02:08:13;100647.38;;;15.25;88.12
12868;BME280;33517;49.866;8.320;2023-09-08T02:11:05;100646.13;;;15.21;88.26
12868;BME280;33517;49.866;8.320;2023-09-08T02:13:57;100649.13;;;15.18;88.47
12868;BME280;33517;49.866;8.320;2023-09-08T02:16:50;100645.84;;;15.16;88.50
12868;BME280;33517;49.866;8.320;2023-09-08T02:19:42;100646.25;;;15.13;88.53
12868;BME280;33517;49.866;8.320;2023-09-08T02:22:34;100643.97;;;15.10;88.71
12868;BME280;33517;49.866;8.320;2023-09-08T02:25:26;100645.19;;;15.08;88.72
12868;BME280;33517;49.866;8.320;2023-09-08T02:28:18;100649.84;;;15.06;88.77
12868;BME280;33517;49.866;8.320;2023-09-08T02:31:10;100649.41;;;15.02;88.67
12868;BME280;33517;49.866;8.320;2023-09-08T02:34:04;100647.75;;;15.01;88.92
12868;BME280;33517;49.866;8.320;2023-09-08T02:36:56;100656.72;;;15.00;88.52
12868;BME280;33517;49.866;8.320;2023-09-08T02:39:48;100652.41;;;14.99;88.96
12868;BME280;33517;49.866;8.320;2023-09-08T02:42:39;100649.13;;;14.97;89.47
12868;BME280;33517;49.866;8.320;2023-09-08T02:45:31;100655.25;;;14.98;89.43
12868;BME280;33517;49.866;8.320;2023-09-08T02:48:24;100645.84;;;14.95;89.30
12868;BME280;33517;49.866;8.320;2023-09-08T02:51:17;100649.50;;;14.94;89.25
12868;BME280;33517;49.866;8.320;2023-09-08T02:54:09;100654.19;;;14.92;89.22
12868;BME280;33517;49.866;8.320;2023-09-08T02:57:01;100648.59;;;14.87;88.92
12868;BME280;33517;49.866;8.320;2023-09-08T02:59:53;100652.47;;;14.85;88.97
12868;BME280;33517;49.866;8.320;2023-09-08T03:02:47;100651.00;;;14.82;89.64
12868;BME280;33517;49.866;8.320;2023-09-08T03:05:38;100646.09;;;14.79;89.72
12868;BME280;33517;49.866;8.320;2023-09-08T03:08:32;100649.72;;;14.78;90.05
12868;BME280;33517;49.866;8.320;2023-09-08T03:11:24;100649.91;;;14.76;90.03
12868;BME280;33517;49.866;8.320;2023-09-08T03:14:15;100646.25;;;14.77;90.02
12868;BME280;33517;49.866;8.320;2023-09-08T03:17:07;100650.09;;;14.75;90.59
12868;BME280;33517;49.866;8.320;2023-09-08T03:19:59;100650.31;;;14.73;90.01
12868;BME280;33517;49.866;8.320;2023-09-08T03:22:51;100645.16;;;14.72;89.95
12868;BME280;33517;49.866;8.320;2023-09-08T03:25:44;100644.53;;;14.70;89.77
12868;BME280;33517;49.866;8.320;2023-09-08T03:28:37;100648.19;;;14.69;89.83
12868;BME280;33517;49.866;8.320;2023-09-08T03:31:30;100645.75;;;14.67;90.16
12868;BME280;33517;49.866;8.320;2023-09-08T03:34:22;100651.38;;;14.64;89.96
12868;BME280;33517;49.866;8.320;2023-09-08T03:37:14;100649.97;;;14.62;89.87
12868;BME280;33517;49.866;8.320;2023-09-08T03:40:07;100648.50;;;14.59;90.04
12868;BME280;33517;49.866;8.320;2023-09-08T03:43:01;100645.84;;;14.59;90.06
12868;BME280;33517;49.866;8.320;2023-09-08T03:45:53;100641.72;;;14.57;90.37
12868;BME280;33517;49.866;8.320;2023-09-08T03:48:44;100649.03;;;14.55;89.57
12868;BME280;33517;49.866;8.320;2023-09-08T03:51:36;100647.59;;;14.52;89.81
12868;BME280;33517;49.866;8.320;2023-09-08T03:54:28;100647.13;;;14.49;89.66
12868;BME280;33517;49.866;8.320;2023-09-08T03:57:20;100644.66;;;14.47;90.25
12868;BME280;33517;49.866;8.320;2023-09-08T04:00:14;100648.53;;;14.45;89.85
12868;BME280;33517;49.866;8.320;2023-09-08T04:03:10;100651.50;;;14.42;90.23
12868;BME280;33517;49.866;8.320;2023-09-08T04:06:02;100657.19;;;14.39;90.26
12868;BME280;33517;49.866;8.320;2023-09-08T04:08:54;100656.56;;;14.37;90.24
12868;BME280;33517;49.866;8.320;2023-09-08T04:11:46;100663.03;;;14.34;90.35
12868;BME280;33517;49.866;8.320;2023-09-08T04:14:38;100659.75;;;14.32;90.52
12868;BME280;33517;49.866;8.320;2023-09-08T04:17:31;100670.72;;;14.29;90.21
12868;BME280;33517;49.866;8.320;2023-09-08T04:20:24;100670.06;;;14.27;90.29
12868;BME280;33517;49.866;8.320;2023-09-08T04:23:17;100662.63;;;14.23;90.01
12868;BME280;33517;49.866;8.320;2023-09-08T04:26:08;100670.75;;;14.21;90.07
12868;BME280;33517;49.866;8.320;2023-09-08T04:29:01;100669.47;;;14.17;90.15
12868;BME280;33517;49.866;8.320;2023-09-08T04:31:53;100673.28;;;14.15;90.30
12868;BME280;33517;49.866;8.320;2023-09-08T04:34:46;100673.66;;;14.12;90.48
12868;BME280;33517;49.866;8.320;2023-09-08T04:37:39;100676.66;;;14.09;90.59
12868;BME280;33517;49.866;8.320;2023-09-08T04:40:31;100678.50;;;14.08;89.76
12868;BME280;33517;49.866;8.320;2023-09-08T04:43:23;100678.66;;;14.07;90.82
12868;BME280;33517;49.866;8.320;2023-09-08T04:46:15;100681.16;;;14.08;91.12
12868;BME280;33517;49.866;8.320;2023-09-08T04:49:07;100690.91;;;14.08;90.31
12868;BME280;33517;49.866;8.320;2023-09-08T04:52:02;100685.63;;;14.08;90.59
12868;BME280;33517;49.866;8.320;2023-09-08T04:54:54;100683.63;;;14.10;90.47
12868;BME280;33517;49.866;8.320;2023-09-08T04:57:45;100685.25;;;14.11;90.19
12868;BME280;33517;49.866;8.320;2023-09-08T05:00:37;100688.91;;;14.10;89.96
12868;BME280;33517;49.866;8.320;2023-09-08T05:03:30;100684.25;;;14.12;90.26
12868;BME280;33517;49.866;8.320;2023-09-08T05:06:22;100682.06;;;14.15;90.11
12868;BME280;33517;49.866;8.320;2023-09-08T05:09:15;100679.88;;;14.19;90.70
12868;BME280;33517;49.866;8.320;2023-09-08T05:12:07;100686.06;;;14.26;90.37
12868;BME280;33517;49.866;8.320;2023-09-08T05:14:59;100680.91;;;14.32;90.02
12868;BME280;33517;49.866;8.320;2023-09-08T05:17:56;100679.81;;;14.41;90.27
12868;BME280;33517;49.866;8.320;2023-09-08T05:20:48;100689.91;;;14.82;89.73
12868;BME280;33517;49.866;8.320;2023-09-08T05:23:40;100686.38;;;15.46;87.67
12868;BME280;33517;49.866;8.320;2023-09-08T05:26:35;100683.84;;;17.49;80.08
12868;BME280;33517;49.866;8.320;2023-09-08T05:29:27;100687.31;;;18.92;75.46
12868;BME280;33517;49.866;8.320;2023-09-08T05:32:19;100691.31;;;20.01;72.00
12868;BME280;33517;49.866;8.320;2023-09-08T05:35:11;100693.00;;;20.93;69.04
12868;BME280;33517;49.866;8.320;2023-09-08T05:38:03;100704.38;;;21.77;66.58
12868;BME280;33517;49.866;8.320;2023-09-08T05:40:55;100706.28;;;22.12;65.22
12868;BME280;33517;49.866;8.320;2023-09-08T05:43:49;100710.81;;;22.46;65.48
12868;BME280;33517;49.866;8.320;2023-09-08T05:46:41;100715.97;;;23.38;62.27
12868;BME280;33517;49.866;8.320;2023-09-08T05:49:33;100719.06;;;24.08;60.73
12868;BME280;33517;49.866;8.320;2023-09-08T05:52:24;100720.41;;;24.82;58.74
12868;BME280;33517;49.866;8.320;2023-09-08T05:55:18;100721.22;;;25.58;57.32
12868;BME280;33517;49.866;8.320;2023-09-08T05:58:11;100723.16;;;26.25;55.33
12868;BME280;33517;49.866;8.320;2023-09-08T06:01:04;100726.72;;;26.88;54.09
12868;BME280;33517;49.866;8.320;2023-09-08T06:03:57;100723.41;;;27.33;53.04
12868;BME280;33517;49.866;8.320;2023-09-08T06:06:49;100724.25;;;27.88;51.63
12868;BME280;33517;49.866;8.320;2023-09-08T06:09:41;100725.00;;;28.39;50.83
12868;BME280;33517;49.866;8.320;2023-09-08T06:12:33;100711.41;;;28.74;49.96
12868;BME280;33517;49.866;8.320;2023-09-08T06:15:25;100722.69;;;29.45;48.99
12868;BME280;33517;49.866;8.320;2023-09-08T06:18:18;100721.75;;;29.98;47.41
12868;BME280;33517;49.866;8.320;2023-09-08T06:21:10;100719.97;;;30.13;47.03
12868;BME280;33517;49.866;8.320;2023-09-08T06:24:02;100717.63;;;30.35;47.29
12868;BME280;33517;49.866;8.320;2023-09-08T06:26:54;100717.34;;;30.60;45.68
12868;BME280;33517;49.866;8.320;2023-09-08T06:29:46;100720.53;;;31.09;44.75
12868;BME280;33517;49.866;8.320;2023-09-08T06:32:38;100712.63;;;31.82;43.79
12868;BME280;33517;49.866;8.320;2023-09-08T06:35:31;100713.97;;;32.57;42.50
12868;BME280;33517;49.866;8.320;2023-09-08T06:38:24;100712.44;;;32.92;41.57
12868;BME280;33517;49.866;8.320;2023-09-08T06:41:16;100704.50;;;32.69;40.59
12868;BME280;33517;49.866;8.320;2023-09-08T06:44:08;100706.81;;;32.75;40.64
12868;BME280;33517;49.866;8.320;2023-09-08T06:47:00;100703.88;;;33.34;40.21
12868;BME280;33517;49.866;8.320;2023-09-08T06:49:53;100712.91;;;33.79;39.06
12868;BME280;33517;49.866;8.320;2023-09-08T06:52:46;100707.41;;;34.23;38.95
12868;BME280;33517;49.866;8.320;2023-09-08T06:55:38;100704.56;;;34.85;38.35
12868;BME280;33517;49.866;8.320;2023-09-08T06:58:30;100707.50;;;34.97;36.63
12868;BME280;33517;49.866;8.320;2023-09-08T07:01:22;100707.69;;;35.00;37.10
12868;BME280;33517;49.866;8.320;2023-09-08T07:04:14;100704.78;;;35.05;36.40
12868;BME280;33517;49.866;8.320;2023-09-08T07:07:06;100699.00;;;35.58;36.01
12868;BME280;33517;49.866;8.320;2023-09-08T07:10:00;100703.72;;;36.21;35.10
12868;BME280;33517;49.866;8.320;2023-09-08T07:12:52;100705.69;;;37.08;33.60
12868;BME280;33517;49.866;8.320;2023-09-08T07:15:44;100712.97;;;37.04;33.68
12868;BME280;33517;49.866;8.320;2023-09-08T07:18:36;100713.56;;;37.71;33.26
12868;BME280;33517;49.866;8.320;2023-09-08T07:21:28;100704.50;;;37.92;31.80
12868;BME280;33517;49.866;8.320;2023-09-08T07:24:21;100715.31;;;37.55;31.79
12868;BME280;33517;49.866;8.320;2023-09-08T07:27:14;100707.69;;;37.61;32.12
12868;BME280;33517;49.866;8.320;2023-09-08T07:30:07;100709.72;;;38.29;31.60
12868;BME280;33517;49.866;8.320;2023-09-08T07:32:59;100706.41;;;38.48;30.85
12868;BME280;33517;49.866;8.320;2023-09-08T07:35:51;100709.25;;;37.82;30.65
12868;BME280;33517;49.866;8.320;2023-09-08T07:38:43;100706.91;;;38.05;30.99
12868;BME280;33517;49.866;8.320;2023-09-08T07:41:35;100714.66;;;38.84;30.14
12868;BME280;33517;49.866;8.320;2023-09-08T07:44:31;100720.44;;;39.58;29.52
12868;BME280;33517;49.866;8.320;2023-09-08T07:47:23;100724.50;;;39.77;28.63
12868;BME280;33517;49.866;8.320;2023-09-08T07:50:20;100719.34;;;39.08;28.97
12868;BME280;33517;49.866;8.320;2023-09-08T07:53:12;100719.91;;;39.13;29.19
12868;BME280;33517;49.866;8.320;2023-09-08T07:56:04;100725.38;;;39.25;29.00
12868;BME280;33517;49.866;8.320;2023-09-08T07:58:56;100723.38;;;40.36;28.69
12868;BME280;33517;49.866;8.320;2023-09-08T08:01:49;100724.75;;;41.50;27.23
12868;BME280;33517;49.866;8.320;2023-09-08T08:04:41;100728.69;;;41.49;26.20
12868;BME280;33517;49.866;8.320;2023-09-08T08:07:33;100729.63;;;41.18;26.25
12868;BME280;33517;49.866;8.320;2023-09-08T08:10:25;100727.16;;;40.63;26.76
12868;BME280;33517;49.866;8.320;2023-09-08T08:13:17;100724.19;;;40.87;26.49
12868;BME280;33517;49.866;8.320;2023-09-08T08:16:09;100730.13;;;41.05;27.07
12868;BME280;33517;49.866;8.320;2023-09-08T08:19:02;100729.59;;;41.95;26.42
12868;BME280;33517;49.866;8.320;2023-09-08T08:21:55;100728.06;;;42.91;25.17
12868;BME280;33517;49.866;8.320;2023-09-08T08:24:47;100725.63;;;43.16;24.92
12868;BME280;33517;49.866;8.320;2023-09-08T08:27:39;100723.94;;;43.08;25.52
12868;BME280;33517;49.866;8.320;2023-09-08T08:30:32;100730.63;;;42.77;24.49
12868;BME280;33517;49.866;8.320;2023-09-08T08:33:24;100722.44;;;42.84;24.75
12868;BME280;33517;49.866;8.320;2023-09-08T08:36:17;100724.69;;;42.30;24.96
12868;BME280;33517;49.866;8.320;2023-09-08T08:39:09;100728.75;;;41.91;24.54
12868;BME280;33517;49.866;8.320;2023-09-08T08:42:06;100720.50;;;42.62;24.99
12868;BME280;33517;49.866;8.320;2023-09-08T08:44:58;100723.00;;;42.71;24.01
12868;BME280;33517;49.866;8.320;2023-09-08T08:47:51;100727.19;;;42.87;24.54
12868;BME280;33517;49.866;8.320;2023-09-08T08:50:43;100713.69;;;42.82;23.98
12868;BME280;33517;49.866;8.320;2023-09-08T08:53:37;100712.13;;;42.36;24.98
12868;BME280;33517;49.866;8.320;2023-09-08T08:56:31;100711.09;;;43.23;23.83
12868;BME280;33517;49.866;8.320;2023-09-08T08:59:23;100713.38;;;43.83;23.91
12868;BME280;33517;49.866;8.320;2023-09-08T09:02:15;100712.84;;;43.38;23.78
12868;BME280;33517;49.866;8.320;2023-09-08T09:05:09;100706.06;;;43.65;23.77
12868;BME280;33517;49.866;8.320;2023-09-08T09:08:03;100712.03;;;45.16;22.13
12868;BME280;33517;49.866;8.320;2023-09-08T09:10:57;100713.53;;;44.41;22.32
12868;BME280;33517;49.866;8.320;2023-09-08T09:13:49;100710.00;;;44.01;22.81
12868;BME280;33517;49.866;8.320;2023-09-08T09:16:42;100709.47;;;43.88;22.41
12868;BME280;33517;49.866;8.320;2023-09-08T09:19:35;100704.16;;;43.10;23.35
12868;BME280;33517;49.866;8.320;2023-09-08T09:22:36;100700.75;;;43.20;23.65
12868;BME280;33517;49.866;8.320;2023-09-08T09:25:30;100724.34;;;44.53;22.19
12868;BME280;33517;49.866;8.320;2023-09-08T09:28:23;100714.00;;;45.15;21.84
12868;BME280;33517;49.866;8.320;2023-09-08T09:31:15;100719.00;;;45.78;21.18
12868;BME280;33517;49.866;8.320;2023-09-08T09:34:07;100720.25;;;45.88;21.78
12868;BME280;33517;49.866;8.320;2023-09-08T09:36:59;100720.91;;;44.74;21.83
12868;BME280;33517;49.866;8.320;2023-09-08T09:39:52;100709.88;;;45.88;21.10
12868;BME280;33517;49.866;8.320;2023-09-08T09:42:44;100710.22;;;45.66;21.44
12868;BME280;33517;49.866;8.320;2023-09-08T09:45:39;100704.34;;;46.27;20.10
12868;BME280;33517;49.866;8.320;2023-09-08T09:48:32;100721.16;;;47.45;19.86
12868;BME280;33517;49.866;8.320;2023-09-08T09:51:24;100701.13;;;46.67;20.15
12868;BME280;33517;49.866;8.320;2023-09-08T09:54:16;100707.03;;;46.87;20.09
12868;BME280;33517;49.866;8.320;2023-09-08T09:57:13;100699.16;;;45.97;19.88
12868;BME280;33517;49.866;8.320;2023-09-08T10:00:06;100688.28;;;45.32;19.89
12868;BME280;33517;49.866;8.320;2023-09-08T10:03:01;100687.03;;;44.54;20.22
12868;BME280;33517;49.866;8.320;2023-09-08T10:05:53;100690.16;;;44.42;20.87
12868;BME280;33517;49.866;8.320;2023-09-08T10:08:46;100696.78;;;46.10;19.96
12868;BME280;33517;49.866;8.320;2023-09-08T10:11:42;100689.09;;;46.95;20.02
12868;BME280;33517;49.866;8.320;2023-09-08T10:14:36;100688.69;;;46.96;19.56
12868;BME280;33517;49.866;8.320;2023-09-08T10:17:30;100699.34;;;47.33;19.61
12868;BME280;33517;49.866;8.320;2023-09-08T10:20:24;100692.88;;;47.47;18.85
12868;BME280;33517;49.866;8.320;2023-09-08T10:23:21;100686.94;;;47.41;18.42
12868;BME280;33517;49.866;8.320;2023-09-08T10:26:16;100678.00;;;46.77;19.48
12868;BME280;33517;49.866;8.320;2023-09-08T10:29:09;100677.13;;;47.05;19.27
12868;BME280;33517;49.866;8.320;2023-09-08T10:32:01;100681.09;;;47.80;18.96
12868;BME280;33517;49.866;8.320;2023-09-08T10:34:54;100682.25;;;47.86;18.33
12868;BME280;33517;49.866;8.320;2023-09-08T10:37:49;100677.59;;;47.69;18.92
12868;BME280;33517;49.866;8.320;2023-09-08T10:40:41;100666.41;;;46.96;19.09
12868;BME280;33517;49.866;8.320;2023-09-08T10:43:33;100666.41;;;46.96;19.60
12868;BME280;33517;49.866;8.320;2023-09-08T10:46:26;100669.09;;;47.17;19.00
12868;BME280;33517;49.866;8.320;2023-09-08T10:49:20;100660.28;;;47.26;18.93
12868;BME280;33517;49.866;8.320;2023-09-08T10:52:12;100668.59;;;47.98;18.64
12868;BME280;33517;49.866;8.320;2023-09-08T10:55:07;100663.56;;;47.10;19.20
12868;BME280;33517;49.866;8.320;2023-09-08T10:57:59;100657.69;;;46.87;19.25
12868;BME280;33517;49.866;8.320;2023-09-08T11:00:51;100657.41;;;45.97;19.31
12868;BME280;33517;49.866;8.320;2023-09-08T11:03:48;100661.38;;;46.31;19.37
12868;BME280;33517;49.866;8.320;2023-09-08T11:06:40;100653.72;;;46.74;19.18
12868;BME280;33517;49.866;8.320;2023-09-08T11:09:35;100654.09;;;46.87;19.89
12868;BME280;33517;49.866;8.320;2023-09-08T11:12:29;100652.56;;;48.09;18.64
12868;BME280;33517;49.866;8.320;2023-09-08T11:15:20;100651.59;;;47.13;18.48
12868;BME280;33517;49.866;8.320;2023-09-08T11:18:12;100643.47;;;46.08;19.81
12868;BME280;33517;49.866;8.320;2023-09-08T11:21:07;100640.66;;;46.47;18.92
12868;BME280;33517;49.866;8.320;2023-09-08T11:23:59;100639.44;;;46.58;19.70
12868;BME280;33517;49.866;8.320;2023-09-08T11:26:51;100646.00;;;47.17;19.33
12868;BME280;33517;49.866;8.320;2023-09-08T11:29:45;100639.47;;;47.48;19.30
12868;BME280;33517;49.866;8.320;2023-09-08T11:32:37;100638.28;;;45.75;19.18
12868;BME280;33517;49.866;8.320;2023-09-08T11:35:31;100633.50;;;45.54;19.26
12868;BME280;33517;49.866;8.320;2023-09-08T11:38:27;100638.69;;;45.63;20.09
12868;BME280;33517;49.866;8.320;2023-09-08T11:41:20;100626.31;;;46.66;19.06
12868;BME280;33517;49.866;8.320;2023-09-08T11:44:15;100629.88;;;47.53;18.30
12868;BME280;33517;49.866;8.320;2023-09-08T11:47:10;100625.94;;;46.46;18.55
12868;BME280;33517;49.866;8.320;2023-09-08T11:50:02;100623.59;;;46.09;19.21
12868;BME280;33517;49.866;8.320;2023-09-08T11:52:54;100616.06;;;45.92;19.42
12868;BME280;33517;49.866;8.320;2023-09-08T11:55:49;100628.31;;;46.55;18.76
12868;BME280;33517;49.866;8.320;2023-09-08T11:58:41;100623.56;;;46.44;18.91
12868;BME280;33517;49.866;8.320;2023-09-08T12:01:33;100626.22;;;46.87;18.63
12868;BME280;33517;49.866;8.320;2023-09-08T12:04:27;100619.56;;;46.53;19.19
12868;BME280;33517;49.866;8.320;2023-09-08T12:07:19;100625.56;;;46.19;18.83
12868;BME280;33517;49.866;8.320;2023-09-08T12:10:11;100618.44;;;45.97;19.67
12868;BME280;33517;49.866;8.320;2023-09-08T12:13:04;100616.81;;;45.72;19.50
12868;BME280;33517;49.866;8.320;2023-09-08T12:15:56;100616.84;;;46.31;18.87
12868;BME280;33517;49.866;8.320;2023-09-08T12:18:48;100609.69;;;46.13;19.47
12868;BME280;33517;49.866;8.320;2023-09-08T12:21:55;100615.16;;;46.59;19.13
12868;BME280;33517;49.866;8.320;2023-09-08T12:24:49;100606.78;;;46.69;19.02
12868;BME280;33517;49.866;8.320;2023-09-08T12:27:42;100608.88;;;46.30;19.00
12868;BME280;33517;49.866;8.320;2023-09-08T12:30:34;100601.91;;;44.87;19.00
12868;BME280;33517;49.866;8.320;2023-09-08T12:33:26;100609.41;;;43.67;21.17
12868;BME280;33517;49.866;8.320;2023-09-08T12:36:19;100600.88;;;45.26;20.23
12868;BME280;33517;49.866;8.320;2023-09-08T12:39:12;100600.16;;;45.82;20.06
12868;BME280;33517;49.866;8.320;2023-09-08T12:42:05;100603.72;;;46.07;18.77
12868;BME280;33517;49.866;8.320;2023-09-08T12:44:57;100604.66;;;44.80;20.27
12868;BME280;33517;49.866;8.320;2023-09-08T12:47:49;100596.03;;;45.09;20.11
12868;BME280;33517;49.866;8.320;2023-09-08T12:50:41;100600.06;;;45.33;19.85
12868;BME280;33517;49.866;8.320;2023-09-08T12:53:33;100593.94;;;44.82;20.11
12868;BME280;33517;49.866;8.320;2023-09-08T12:56:27;100586.16;;;45.36;20.58
12868;BME280;33517;49.866;8.320;2023-09-08T12:59:19;100586.56;;;45.35;19.63
12868;BME280;33517;49.866;8.320;2023-09-08T13:02:11;100585.38;;;45.29;19.94
12868;BME280;33517;49.866;8.320;2023-09-08T13:05:04;100582.50;;;45.08;20.54
12868;BME280;33517;49.866;8.320;2023-09-08T13:07:56;100582.06;;;44.16;21.16
12868;BME280;33517;49.866;8.320;2023-09-08T13:10:48;100580.41;;;44.73;20.82
12868;BME280;33517;49.866;8.320;2023-09-08T13:13:41;100572.72;;;44.38;20.75
12868;BME280;33517;49.866;8.320;2023-09-08T13:16:33;100574.66;;;43.03;21.96
12868;BME280;33517;49.866;8.320;2023-09-08T13:19:25;100576.75;;;43.13;21.96
12868;BME280;33517;49.866;8.320;2023-09-08T13:22:17;100563.25;;;42.78;21.69
12868;BME280;33517;49.866;8.320;2023-09-08T13:25:09;100564.28;;;42.11;22.01
12868;BME280;33517;49.866;8.320;2023-09-08T13:28:00;100555.94;;;41.17;22.16
12868;BME280;33517;49.866;8.320;2023-09-08T13:30:54;100547.44;;;40.33;22.78
12868;BME280;33517;49.866;8.320;2023-09-08T13:33:46;100557.41;;;38.86;24.69
12868;BME280;33517;49.866;8.320;2023-09-08T13:36:37;100544.63;;;37.00;26.64
12868;BME280;33517;49.866;8.320;2023-09-08T13:39:29;100543.81;;;36.08;26.49
12868;BME280;33517;49.866;8.320;2023-09-08T13:42:22;100531.84;;;35.38;27.52
12868;BME280;33517;49.866;8.320;2023-09-08T13:45:13;100531.22;;;34.38;29.12
12868;BME280;33517;49.866;8.320;2023-09-08T13:48:07;100534.16;;;33.94;30.02
12868;BME280;33517;49.866;8.320;2023-09-08T13:51:01;100529.66;;;32.97;32.21
12868;BME280;33517;49.866;8.320;2023-09-08T13:53:53;100523.00;;;32.40;34.35
12868;BME280;33517;49.866;8.320;2023-09-08T13:56:45;100523.44;;;32.47;32.94
12868;BME280;33517;49.866;8.320;2023-09-08T13:59:37;100524.03;;;32.44;33.66
12868;BME280;33517;49.866;8.320;2023-09-08T14:02:29;100522.69;;;32.06;34.14
12868;BME280;33517;49.866;8.320;2023-09-08T14:05:22;100515.19;;;32.12;34.09
12868;BME280;33517;49.866;8.320;2023-09-08T14:08:14;100518.84;;;32.07;34.58
12868;BME280;33517;49.866;8.320;2023-09-08T14:11:06;100519.44;;;32.04;34.20
12868;BME280;33517;49.866;8.320;2023-09-08T14:13:58;100518.53;;;32.09;34.37
12868;BME280;33517;49.866;8.320;2023-09-08T14:16:50;100518.53;;;32.09;34.58
12868;BME280;33517;49.866;8.320;2023-09-08T14:19:42;100519.75;;;32.16;34.74
12868;BME280;33517;49.866;8.320;2023-09-08T14:22:35;100522.94;;;32.32;34.83
12868;BME280;33517;49.866;8.320;2023-09-08T14:25:27;100514.97;;;32.49;35.02
12868;BME280;33517;49.866;8.320;2023-09-08T14:28:19;100512.91;;;33.12;34.73
12868;BME280;33517;49.866;8.320;2023-09-08T14:31:11;100514.56;;;33.92;33.52
12868;BME280;33517;49.866;8.320;2023-09-08T14:34:03;100508.50;;;34.03;33.34
12868;BME280;33517;49.866;8.320;2023-09-08T14:36:55;100505.78;;;34.03;33.41
12868;BME280;33517;49.866;8.320;2023-09-08T14:39:48;100502.97;;;33.16;34.47
12868;BME280;33517;49.866;8.320;2023-09-08T14:42:40;100504.06;;;32.49;34.94
12868;BME280;33517;49.866;8.320;2023-09-08T14:45:32;100500.63;;;31.94;35.49
12868;BME280;33517;49.866;8.320;2023-09-08T14:48:24;100506.44;;;31.74;34.50
12868;BME280;33517;49.866;8.320;2023-09-08T14:51:16;100494.94;;;31.50;34.19
12868;BME280;33517;49.866;8.320;2023-09-08T14:54:08;100499.13;;;31.29;34.30
12868;BME280;33517;49.866;8.320;2023-09-08T14:57:02;100504.91;;;31.09;34.80
12868;BME280;33517;49.866;8.320;2023-09-08T14:59:54;100495.56;;;30.82;35.19
12868;BME280;33517;49.866;8.320;2023-09-08T15:02:46;100507.88;;;30.75;35.00